sensor_id;sensor_type;location;lat;lon;timestamp;pressure;altitude;pressure_sealevel;temperature;humidity
67373;BME280;54257;54.496;18.412;2023-01-27T00:01:16;100233.90;;;0.75;100.00
67373;BME280;54257;54.496;18.412;2023-01-27T00:03:44;100236.25;;;0.75;100.00
67373;BME280;54257;54.496;18.412;2023-01-27T00:06:11;100233.88;;;0.74;100.00
67373;BME280;54257;54.496;18.412;2023-01-27T00:08:42;100231.89;;;0.75;100.00
67373;BME280;54257;54.496;18.412;2023-01-27T00:11:11;100230.70;;;0.75;100.00
67373;BME280;54257;54.496;18.412;2023-01-27T00:13:57;100232.47;;;0.76;100.00
67373;BME280;54257;54.496;18.412;2023-01-27T00:16:24;100231.45;;;0.76;100.00
67373;BME280;54257;54.496;18.412;2023-01-27T00:18:51;100233.67;;;0.77;100.00
67373;BME280;54257;54.496;18.412;2023-01-27T00:21:20;100238.61;;;0.78;100.00
67373;BME280;54257;54.496;18.412;2023-01-27T00:24:11;100234.54;;;0.80;100.00
67373;BME280;54257;54.496;18.412;2023-01-27T00:26:56;100237.47;;;0.81;100.00
67373;BME280;54257;54.496;18.412;2023-01-27T00:29:23;100240.74;;;0.82;100.00
67373;BME280;54257;54.496;18.412;2023-01-27T00:31:50;100239.16;;;0.84;100.00
67373;BME280;54257;54.496;18.412;2023-01-27T00:34:36;100238.43;;;0.87;100.00
67373;BME280;54257;54.496;18.412;2023-01-27T00:37:05;100239.23;;;0.89;100.00
67373;BME280;54257;54.496;18.412;2023-01-27T00:39:32;100242.75;;;0.91;100.00
67373;BME280;54257;54.496;18.412;2023-01-27T00:41:59;100240.65;;;0.92;100.00
67373;BME280;54257;54.496;18.412;2023-01-27T00:44:26;100240.21;;;0.94;100.00
67373;BME280;54257;54.496;18.412;2023-01-27T00:46:54;100241.48;;;0.95;100.00
67373;BME280;54257;54.496;18.412;2023-01-27T00:49:21;100239.91;;;0.97;100.00
67373;BME280;54257;54.496;18.412;2023-01-27T00:51:48;100243.58;;;0.99;100.00
67373;BME280;54257;54.496;18.412;2023-01-27T00:54:15;100241.61;;;1.00;100.00
67373;BME280;54257;54.496;18.412;2023-01-27T00:56:43;100244.35;;;1.01;100.00
67373;BME280;54257;54.496;18.412;2023-01-27T00:59:11;100241.76;;;1.03;100.00
67373;BME280;54257;54.496;18.412;2023-01-27T01:01:38;100245.36;;;1.04;100.00
67373;BME280;54257;54.496;18.412;2023-01-27T01:04:06;100251.68;;;1.05;100.00
67373;BME280;54257;54.496;18.412;2023-01-27T01:06:33;100253.66;;;1.08;100.00
67373;BME280;54257;54.496;18.412;2023-01-27T01:09:00;100259.48;;;1.09;100.00
67373;BME280;54257;54.496;18.412;2023-01-27T01:11:28;100259.95;;;1.12;100.00
67373;BME280;54257;54.496;18.412;2023-01-27T01:13:55;100259.19;;;1.16;100.00
67373;BME280;54257;54.496;18.412;2023-01-27T01:16:24;100263.96;;;1.20;100.00
67373;BME280;54257;54.496;18.412;2023-01-27T01:18:52;100267.70;;;1.24;100.00
67373;BME280;54257;54.496;18.412;2023-01-27T01:21:21;100265.72;;;1.27;100.00
67373;BME280;54257;54.496;18.412;2023-01-27T01:23:49;100267.59;;;1.30;100.00
67373;BME280;54257;54.496;18.412;2023-01-27T01:26:16;100268.67;;;1.34;100.00
67373;BME280;54257;54.496;18.412;2023-01-27T01:28:45;100264.58;;;1.39;100.00
67373;BME280;54257;54.496;18.412;2023-01-27T01:31:15;100269.73;;;1.44;100.00
67373;BME280;54257;54.496;18.412;2023-01-27T01:33:44;100272.20;;;1.48;100.00
67373;BME280;54257;54.496;18.412;2023-01-27T01:36:14;100275.11;;;1.53;100.00
67373;BME280;54257;54.496;18.412;2023-01-27T01:38:41;100270.61;;;1.56;100.00
67373;BME280;54257;54.496;18.412;2023-01-27T01:41:16;100274.23;;;1.60;100.00
67373;BME280;54257;54.496;18.412;2023-01-27T01:43:43;100279.53;;;1.65;100.00
67373;BME280;54257;54.496;18.412;2023-01-27T01:46:11;100281.36;;;1.68;100.00
67373;BME280;54257;54.496;18.412;2023-01-27T01:48:48;100283.59;;;1.71;100.00
67373;BME280;54257;54.496;18.412;2023-01-27T01:51:37;100277.87;;;1.74;100.00
67373;BME280;54257;54.496;18.412;2023-01-27T01:56:40;100278.34;;;1.80;100.00
67373;BME280;54257;54.496;18.412;2023-01-27T01:59:13;100281.83;;;1.82;100.00
67373;BME280;54257;54.496;18.412;2023-01-27T02:01:43;100284.33;;;1.84;100.00
67373;BME280;54257;54.496;18.412;2023-01-27T02:04:16;100281.00;;;1.82;100.00
67373;BME280;54257;54.496;18.412;2023-01-27T02:06:58;100287.98;;;1.87;100.00
67373;BME280;54257;54.496;18.412;2023-01-27T02:09:27;100287.09;;;1.88;100.00
67373;BME280;54257;54.496;18.412;2023-01-27T02:11:57;100287.31;;;1.89;100.00
67373;BME280;54257;54.496;18.412;2023-01-27T02:14:29;100291.17;;;1.92;100.00
67373;BME280;54257;54.496;18.412;2023-01-27T02:16:57;100295.42;;;1.93;100.00
67373;BME280;54257;54.496;18.412;2023-01-27T02:19:32;100295.98;;;1.94;100.00
67373;BME280;54257;54.496;18.412;2023-01-27T02:22:05;100300.27;;;1.95;100.00
67373;BME280;54257;54.496;18.412;2023-01-27T02:24:41;100301.52;;;1.96;100.00
67373;BME280;54257;54.496;18.412;2023-01-27T02:27:11;100302.34;;;1.96;100.00
67373;BME280;54257;54.496;18.412;2023-01-27T02:29:42;100305.93;;;1.97;100.00
67373;BME280;54257;54.496;18.412;2023-01-27T02:32:23;100305.58;;;1.97;100.00
67373;BME280;54257;54.496;18.412;2023-01-27T02:34:55;100311.99;;;1.97;100.00
67373;BME280;54257;54.496;18.412;2023-01-27T02:37:23;100313.39;;;1.95;100.00
67373;BME280;54257;54.496;18.412;2023-01-27T02:39:51;100312.17;;;1.95;100.00
67373;BME280;54257;54.496;18.412;2023-01-27T02:42:20;100320.45;;;1.95;100.00
67373;BME280;54257;54.496;18.412;2023-01-27T02:44:48;100322.54;;;1.95;100.00
67373;BME280;54257;54.496;18.412;2023-01-27T02:47:16;100327.16;;;1.94;100.00
67373;BME280;54257;54.496;18.412;2023-01-27T02:49:43;100327.37;;;1.95;100.00
67373;BME280;54257;54.496;18.412;2023-01-27T02:52:10;100328.34;;;1.94;100.00
67373;BME280;54257;54.496;18.412;2023-01-27T02:54:37;100332.02;;;1.94;100.00
67373;BME280;54257;54.496;18.412;2023-01-27T02:57:04;100335.54;;;1.94;100.00
67373;BME280;54257;54.496;18.412;2023-01-27T02:59:31;100336.92;;;1.91;100.00
67373;BME280;54257;54.496;18.412;2023-01-27T03:01:59;100339.48;;;1.92;100.00
67373;BME280;54257;54.496;18.412;2023-01-27T03:04:26;100343.56;;;1.92;100.00
67373;BME280;54257;54.496;18.412;2023-01-27T03:06:56;100346.78;;;1.93;100.00
67373;BME280;54257;54.496;18.412;2023-01-27T03:09:24;100343.91;;;1.93;100.00
67373;BME280;54257;54.496;18.412;2023-01-27T03:11:51;100338.63;;;1.91;100.00
67373;BME280;54257;54.496;18.412;2023-01-27T03:14:36;100344.04;;;1.92;100.00
67373;BME280;54257;54.496;18.412;2023-01-27T03:17:22;100349.05;;;1.91;100.00
67373;BME280;54257;54.496;18.412;2023-01-27T03:20:08;100353.23;;;1.90;100.00
67373;BME280;54257;54.496;18.412;2023-01-27T03:22:36;100353.86;;;1.90;100.00
67373;BME280;54257;54.496;18.412;2023-01-27T03:25:03;100356.86;;;1.89;100.00
67373;BME280;54257;54.496;18.412;2023-01-27T03:27:31;100360.02;;;1.88;100.00
67373;BME280;54257;54.496;18.412;2023-01-27T03:29:58;100368.74;;;1.88;100.00
67373;BME280;54257;54.496;18.412;2023-01-27T03:32:27;100367.81;;;1.87;100.00
67373;BME280;54257;54.496;18.412;2023-01-27T03:34:55;100367.99;;;1.84;100.00
67373;BME280;54257;54.496;18.412;2023-01-27T03:37:29;100371.20;;;1.81;100.00
67373;BME280;54257;54.496;18.412;2023-01-27T03:40:16;100377.16;;;1.79;100.00
67373;BME280;54257;54.496;18.412;2023-01-27T03:43:01;100382.89;;;1.77;100.00
67373;BME280;54257;54.496;18.412;2023-01-27T03:45:49;100383.84;;;1.75;100.00
67373;BME280;54257;54.496;18.412;2023-01-27T03:48:36;100382.20;;;1.73;100.00
67373;BME280;54257;54.496;18.412;2023-01-27T03:51:05;100382.48;;;1.73;100.00
67373;BME280;54257;54.496;18.412;2023-01-27T03:53:34;100379.83;;;1.71;100.00
67373;BME280;54257;54.496;18.412;2023-01-27T03:56:02;100378.98;;;1.70;100.00
67373;BME280;54257;54.496;18.412;2023-01-27T03:58:34;100378.98;;;1.70;100.00
67373;BME280;54257;54.496;18.412;2023-01-27T04:01:20;100384.05;;;1.71;100.00
67373;BME280;54257;54.496;18.412;2023-01-27T04:03:48;100387.84;;;1.69;100.00
67373;BME280;54257;54.496;18.412;2023-01-27T04:06:37;100391.84;;;1.68;100.00
67373;BME280;54257;54.496;18.412;2023-01-27T04:11:51;100394.14;;;1.67;100.00
67373;BME280;54257;54.496;18.412;2023-01-27T04:14:40;100393.77;;;1.67;100.00
67373;BME280;54257;54.496;18.412;2023-01-27T04:17:18;100397.97;;;1.66;100.00
67373;BME280;54257;54.496;18.412;2023-01-27T04:19:45;100399.42;;;1.65;100.00
67373;BME280;54257;54.496;18.412;2023-01-27T04:22:14;100403.98;;;1.66;100.00
67373;BME280;54257;54.496;18.412;2023-01-27T04:24:42;100404.89;;;1.64;100.00
67373;BME280;54257;54.496;18.412;2023-01-27T04:27:11;100405.45;;;1.62;100.00
67373;BME280;54257;54.496;18.412;2023-01-27T04:29:40;100407.70;;;1.61;100.00
67373;BME280;54257;54.496;18.412;2023-01-27T04:32:09;100410.80;;;1.59;100.00
67373;BME280;54257;54.496;18.412;2023-01-27T04:34:38;100412.94;;;1.58;100.00
67373;BME280;54257;54.496;18.412;2023-01-27T04:37:06;100415.94;;;1.57;100.00
67373;BME280;54257;54.496;18.412;2023-01-27T04:39:34;100419.75;;;1.56;100.00
67373;BME280;54257;54.496;18.412;2023-01-27T04:42:01;100420.54;;;1.55;100.00
67373;BME280;54257;54.496;18.412;2023-01-27T04:44:29;100424.66;;;1.54;100.00
67373;BME280;54257;54.496;18.412;2023-01-27T04:47:00;100421.02;;;1.52;100.00
67373;BME280;54257;54.496;18.412;2023-01-27T04:49:27;100426.90;;;1.49;100.00
67373;BME280;54257;54.496;18.412;2023-01-27T04:51:54;100429.13;;;1.47;100.00
67373;BME280;54257;54.496;18.412;2023-01-27T04:54:21;100433.08;;;1.46;100.00
67373;BME280;54257;54.496;18.412;2023-01-27T04:56:59;100435.00;;;1.44;100.00
67373;BME280;54257;54.496;18.412;2023-01-27T04:59:26;100440.16;;;1.44;100.00
67373;BME280;54257;54.496;18.412;2023-01-27T05:01:54;100443.34;;;1.43;100.00
67373;BME280;54257;54.496;18.412;2023-01-27T05:04:21;100445.36;;;1.43;100.00
67373;BME280;54257;54.496;18.412;2023-01-27T05:06:49;100453.64;;;1.44;100.00
67373;BME280;54257;54.496;18.412;2023-01-27T05:09:16;100458.05;;;1.44;100.00
67373;BME280;54257;54.496;18.412;2023-01-27T05:11:43;100453.00;;;1.44;100.00
67373;BME280;54257;54.496;18.412;2023-01-27T05:14:10;100453.55;;;1.45;100.00
67373;BME280;54257;54.496;18.412;2023-01-27T05:16:37;100457.63;;;1.46;100.00
67373;BME280;54257;54.496;18.412;2023-01-27T05:19:05;100461.98;;;1.45;100.00
67373;BME280;54257;54.496;18.412;2023-01-27T05:21:33;100465.09;;;1.46;100.00
67373;BME280;54257;54.496;18.412;2023-01-27T05:24:01;100469.67;;;1.47;100.00
67373;BME280;54257;54.496;18.412;2023-01-27T05:26:28;100469.53;;;1.47;100.00
67373;BME280;54257;54.496;18.412;2023-01-27T05:28:57;100471.16;;;1.47;100.00
67373;BME280;54257;54.496;18.412;2023-01-27T05:31:26;100475.92;;;1.47;100.00
67373;BME280;54257;54.496;18.412;2023-01-27T05:33:55;100475.05;;;1.47;100.00
67373;BME280;54257;54.496;18.412;2023-01-27T05:36:24;100485.02;;;1.47;100.00
67373;BME280;54257;54.496;18.412;2023-01-27T05:38:53;100488.88;;;1.47;100.00
67373;BME280;54257;54.496;18.412;2023-01-27T05:41:21;100492.68;;;1.46;100.00
67373;BME280;54257;54.496;18.412;2023-01-27T05:43:53;100494.09;;;1.45;100.00
67373;BME280;54257;54.496;18.412;2023-01-27T05:46:27;100489.31;;;1.44;100.00
67373;BME280;54257;54.496;18.412;2023-01-27T05:48:59;100494.30;;;1.43;100.00
67373;BME280;54257;54.496;18.412;2023-01-27T05:51:32;100503.89;;;1.43;100.00
67373;BME280;54257;54.496;18.412;2023-01-27T05:54:00;100500.64;;;1.41;100.00
67373;BME280;54257;54.496;18.412;2023-01-27T05:56:28;100505.96;;;1.40;100.00
67373;BME280;54257;54.496;18.412;2023-01-27T05:58:56;100511.94;;;1.39;100.00
67373;BME280;54257;54.496;18.412;2023-01-27T06:01:29;100516.73;;;1.38;100.00
67373;BME280;54257;54.496;18.412;2023-01-27T06:03:56;100517.66;;;1.37;100.00
67373;BME280;54257;54.496;18.412;2023-01-27T06:06:25;100517.64;;;1.36;100.00
67373;BME280;54257;54.496;18.412;2023-01-27T06:08:52;100524.59;;;1.34;100.00
67373;BME280;54257;54.496;18.412;2023-01-27T06:11:20;100532.48;;;1.34;100.00
67373;BME280;54257;54.496;18.412;2023-01-27T06:13:47;100530.69;;;1.32;100.00
67373;BME280;54257;54.496;18.412;2023-01-27T06:16:16;100533.28;;;1.31;100.00
67373;BME280;54257;54.496;18.412;2023-01-27T06:18:45;100540.92;;;1.29;100.00
67373;BME280;54257;54.496;18.412;2023-01-27T06:21:14;100542.98;;;1.27;100.00
67373;BME280;54257;54.496;18.412;2023-01-27T06:23:43;100542.55;;;1.25;100.00
67373;BME280;54257;54.496;18.412;2023-01-27T06:26:15;100542.27;;;1.24;100.00
67373;BME280;54257;54.496;18.412;2023-01-27T06:28:43;100552.18;;;1.21;100.00
67373;BME280;54257;54.496;18.412;2023-01-27T06:31:14;100557.48;;;1.17;100.00
67373;BME280;54257;54.496;18.412;2023-01-27T06:33:42;100556.00;;;1.17;100.00
67373;BME280;54257;54.496;18.412;2023-01-27T06:36:11;100560.64;;;1.16;100.00
67373;BME280;54257;54.496;18.412;2023-01-27T06:38:41;100564.44;;;1.15;100.00
67373;BME280;54257;54.496;18.412;2023-01-27T06:41:09;100565.02;;;1.14;100.00
67373;BME280;54257;54.496;18.412;2023-01-27T06:43:37;100568.41;;;1.12;100.00
67373;BME280;54257;54.496;18.412;2023-01-27T06:46:04;100570.83;;;1.10;100.00
67373;BME280;54257;54.496;18.412;2023-01-27T06:48:33;100573.48;;;1.09;100.00
67373;BME280;54257;54.496;18.412;2023-01-27T06:51:03;100583.73;;;1.06;100.00
67373;BME280;54257;54.496;18.412;2023-01-27T06:53:30;100583.05;;;1.03;100.00
67373;BME280;54257;54.496;18.412;2023-01-27T06:56:00;100591.06;;;1.03;99.96
67373;BME280;54257;54.496;18.412;2023-01-27T06:58:29;100593.61;;;1.01;99.76
67373;BME280;54257;54.496;18.412;2023-01-27T07:00:57;100594.04;;;0.99;99.72
67373;BME280;54257;54.496;18.412;2023-01-27T07:03:24;100593.52;;;0.97;99.87
67373;BME280;54257;54.496;18.412;2023-01-27T07:05:52;100598.41;;;0.94;99.96
67373;BME280;54257;54.496;18.412;2023-01-27T07:08:19;100603.88;;;0.93;100.00
67373;BME280;54257;54.496;18.412;2023-01-27T07:10:46;100608.80;;;0.91;100.00
67373;BME280;54257;54.496;18.412;2023-01-27T07:13:14;100607.70;;;0.90;100.00
67373;BME280;54257;54.496;18.412;2023-01-27T07:15:41;100607.38;;;0.88;100.00
67373;BME280;54257;54.496;18.412;2023-01-27T07:18:10;100602.50;;;0.85;99.90
67373;BME280;54257;54.496;18.412;2023-01-27T07:20:40;100604.63;;;0.83;99.48
67373;BME280;54257;54.496;18.412;2023-01-27T07:23:08;100611.30;;;0.83;99.42
67373;BME280;54257;54.496;18.412;2023-01-27T07:25:38;100619.99;;;0.82;99.43
67373;BME280;54257;54.496;18.412;2023-01-27T07:28:05;100629.20;;;0.81;99.54
67373;BME280;54257;54.496;18.412;2023-01-27T07:30:32;100635.70;;;0.81;99.62
67373;BME280;54257;54.496;18.412;2023-01-27T07:33:09;100640.05;;;0.80;99.89
67373;BME280;54257;54.496;18.412;2023-01-27T07:35:38;100639.20;;;0.80;99.99
67373;BME280;54257;54.496;18.412;2023-01-27T07:38:05;100641.31;;;0.79;99.76
67373;BME280;54257;54.496;18.412;2023-01-27T07:40:34;100643.02;;;0.80;99.94
67373;BME280;54257;54.496;18.412;2023-01-27T07:43:02;100644.02;;;0.80;99.56
67373;BME280;54257;54.496;18.412;2023-01-27T07:45:29;100642.35;;;0.82;99.73
67373;BME280;54257;54.496;18.412;2023-01-27T07:48:07;100643.49;;;0.84;99.92
67373;BME280;54257;54.496;18.412;2023-01-27T07:50:35;100646.85;;;0.87;100.00
67373;BME280;54257;54.496;18.412;2023-01-27T07:53:05;100654.91;;;0.89;100.00
67373;BME280;54257;54.496;18.412;2023-01-27T07:55:33;100654.91;;;0.92;100.00
67373;BME280;54257;54.496;18.412;2023-01-27T07:58:00;100657.70;;;0.93;100.00
67373;BME280;54257;54.496;18.412;2023-01-27T08:00:28;100656.30;;;0.95;100.00
67373;BME280;54257;54.496;18.412;2023-01-27T08:02:58;100659.26;;;0.97;100.00
67373;BME280;54257;54.496;18.412;2023-01-27T08:05:27;100661.19;;;0.97;100.00
67373;BME280;54257;54.496;18.412;2023-01-27T08:07:55;100662.16;;;0.97;99.70
67373;BME280;54257;54.496;18.412;2023-01-27T08:10:24;100664.30;;;0.99;100.00
67373;BME280;54257;54.496;18.412;2023-01-27T08:12:51;100667.60;;;1.00;100.00
67373;BME280;54257;54.496;18.412;2023-01-27T08:15:18;100672.20;;;1.01;100.00
67373;BME280;54257;54.496;18.412;2023-01-27T08:17:53;100669.55;;;0.99;99.17
67373;BME280;54257;54.496;18.412;2023-01-27T08:20:22;100669.98;;;1.01;98.49
67373;BME280;54257;54.496;18.412;2023-01-27T08:22:49;100676.00;;;1.00;97.80
67373;BME280;54257;54.496;18.412;2023-01-27T08:25:16;100684.27;;;1.01;97.54
67373;BME280;54257;54.496;18.412;2023-01-27T08:27:43;100686.09;;;1.03;97.53
67373;BME280;54257;54.496;18.412;2023-01-27T08:30:10;100687.18;;;1.06;97.35
67373;BME280;54257;54.496;18.412;2023-01-27T08:32:37;100693.82;;;1.10;97.33
67373;BME280;54257;54.496;18.412;2023-01-27T08:35:04;100692.80;;;1.13;96.79
67373;BME280;54257;54.496;18.412;2023-01-27T08:37:32;100700.10;;;1.19;97.38
67373;BME280;54257;54.496;18.412;2023-01-27T08:39:59;100696.64;;;1.23;96.87
67373;BME280;54257;54.496;18.412;2023-01-27T08:42:26;100689.24;;;1.28;97.24
67373;BME280;54257;54.496;18.412;2023-01-27T08:44:53;100702.72;;;1.33;97.11
67373;BME280;54257;54.496;18.412;2023-01-27T08:47:20;100704.11;;;1.36;96.24
67373;BME280;54257;54.496;18.412;2023-01-27T08:49:47;100699.13;;;1.40;95.86
67373;BME280;54257;54.496;18.412;2023-01-27T08:52:14;100698.23;;;1.42;95.54
67373;BME280;54257;54.496;18.412;2023-01-27T08:54:41;100701.56;;;1.44;95.81
67373;BME280;54257;54.496;18.412;2023-01-27T08:57:08;100704.41;;;1.44;94.68
67373;BME280;54257;54.496;18.412;2023-01-27T08:59:35;100701.08;;;1.44;93.30
67373;BME280;54257;54.496;18.412;2023-01-27T09:02:02;100702.48;;;1.45;93.20
67373;BME280;54257;54.496;18.412;2023-01-27T09:04:29;100703.89;;;1.46;93.19
67373;BME280;54257;54.496;18.412;2023-01-27T09:06:57;100706.69;;;1.48;92.75
67373;BME280;54257;54.496;18.412;2023-01-27T09:09:24;100703.52;;;1.48;92.08
67373;BME280;54257;54.496;18.412;2023-01-27T09:11:51;100713.98;;;1.51;93.01
67373;BME280;54257;54.496;18.412;2023-01-27T09:14:19;100717.36;;;1.54;93.16
67373;BME280;54257;54.496;18.412;2023-01-27T09:16:47;100714.30;;;1.56;92.84
67373;BME280;54257;54.496;18.412;2023-01-27T09:19:14;100713.61;;;1.55;92.17
67373;BME280;54257;54.496;18.412;2023-01-27T09:21:41;100716.11;;;1.55;91.03
67373;BME280;54257;54.496;18.412;2023-01-27T09:24:08;100710.64;;;1.57;90.59
67373;BME280;54257;54.496;18.412;2023-01-27T09:26:38;100717.69;;;1.59;90.65
67373;BME280;54257;54.496;18.412;2023-01-27T09:29:05;100713.80;;;1.61;89.92
67373;BME280;54257;54.496;18.412;2023-01-27T09:31:33;100711.29;;;1.64;89.97
67373;BME280;54257;54.496;18.412;2023-01-27T09:33:59;100710.59;;;1.63;88.70
67373;BME280;54257;54.496;18.412;2023-01-27T09:36:27;100716.64;;;1.63;88.40
67373;BME280;54257;54.496;18.412;2023-01-27T09:38:59;100716.94;;;1.63;88.58
67373;BME280;54257;54.496;18.412;2023-01-27T09:41:46;100716.52;;;1.62;88.47
67373;BME280;54257;54.496;18.412;2023-01-27T09:50:18;100724.06;;;1.82;90.87
67373;BME280;54257;54.496;18.412;2023-01-27T09:56:07;100716.72;;;1.99;88.68
67373;BME280;54257;54.496;18.412;2023-01-27T10:04:25;100726.78;;;2.06;87.87
67373;BME280;54257;54.496;18.412;2023-01-27T10:23:33;100730.18;;;2.45;85.25
67373;BME280;54257;54.496;18.412;2023-01-27T10:26:11;100722.55;;;2.44;84.39
67373;BME280;54257;54.496;18.412;2023-01-27T10:28:45;100723.89;;;2.49;84.59
67373;BME280;54257;54.496;18.412;2023-01-27T10:31:24;100727.05;;;2.60;84.65
67373;BME280;54257;54.496;18.412;2023-01-27T10:33:55;100732.56;;;2.73;84.95
67373;BME280;54257;54.496;18.412;2023-01-27T10:36:29;100729.77;;;2.97;84.60
67373;BME280;54257;54.496;18.412;2023-01-27T10:50:00;100719.25;;;4.15;79.11
67373;BME280;54257;54.496;18.412;2023-01-27T10:52:46;100720.79;;;4.18;77.15
67373;BME280;54257;54.496;18.412;2023-01-27T10:57:54;100723.48;;;3.97;75.35
67373;BME280;54257;54.496;18.412;2023-01-27T11:00:54;100721.16;;;3.85;75.31
67373;BME280;54257;54.496;18.412;2023-01-27T11:06:07;100727.98;;;3.95;74.60
67373;BME280;54257;54.496;18.412;2023-01-27T11:08:40;100731.02;;;4.10;75.96
67373;BME280;54257;54.496;18.412;2023-01-27T11:11:09;100732.01;;;4.22;74.21
67373;BME280;54257;54.496;18.412;2023-01-27T11:14:01;100733.53;;;4.25;73.04
67373;BME280;54257;54.496;18.412;2023-01-27T11:16:35;100737.95;;;4.29;73.67
67373;BME280;54257;54.496;18.412;2023-01-27T11:19:35;100740.13;;;4.44;75.77
67373;BME280;54257;54.496;18.412;2023-01-27T11:21:58;100738.10;;;4.70;74.90
67373;BME280;54257;54.496;18.412;2023-01-27T11:24:48;100745.63;;;4.71;74.52
67373;BME280;54257;54.496;18.412;2023-01-27T11:27:26;100742.80;;;4.86;73.94
67373;BME280;54257;54.496;18.412;2023-01-27T11:30:09;100738.40;;;4.98;73.03
67373;BME280;54257;54.496;18.412;2023-01-27T11:35:32;100742.87;;;4.67;68.43
67373;BME280;54257;54.496;18.412;2023-01-27T11:37:59;100741.52;;;4.36;68.01
67373;BME280;54257;54.496;18.412;2023-01-27T11:40:35;100746.39;;;4.04;68.39
67373;BME280;54257;54.496;18.412;2023-01-27T11:43:04;100747.28;;;3.75;69.56
67373;BME280;54257;54.496;18.412;2023-01-27T11:45:33;100740.31;;;3.44;69.86
67373;BME280;54257;54.496;18.412;2023-01-27T11:48:05;100742.48;;;3.32;71.66
67373;BME280;54257;54.496;18.412;2023-01-27T11:50:34;100740.78;;;3.38;72.19
67373;BME280;54257;54.496;18.412;2023-01-27T11:53:21;100744.71;;;3.45;71.48
67373;BME280;54257;54.496;18.412;2023-01-27T11:55:59;100739.51;;;3.30;70.93
67373;BME280;54257;54.496;18.412;2023-01-27T11:58:42;100736.81;;;3.28;71.97
67373;BME280;54257;54.496;18.412;2023-01-27T12:01:15;100734.27;;;3.45;72.09
67373;BME280;54257;54.496;18.412;2023-01-27T12:06:17;100730.68;;;3.59;71.92
67373;BME280;54257;54.496;18.412;2023-01-27T12:08:49;100730.90;;;3.66;70.45
67373;BME280;54257;54.496;18.412;2023-01-27T12:11:23;100736.88;;;3.58;70.48
67373;BME280;54257;54.496;18.412;2023-01-27T12:13:53;100735.59;;;3.39;70.29
67373;BME280;54257;54.496;18.412;2023-01-27T12:16:24;100739.59;;;3.21;71.42
67373;BME280;54257;54.496;18.412;2023-01-27T12:19:03;100738.23;;;3.06;71.72
67373;BME280;54257;54.496;18.412;2023-01-27T12:21:47;100734.68;;;2.92;71.74
67373;BME280;54257;54.496;18.412;2023-01-27T12:24:27;100733.14;;;2.91;72.36
67373;BME280;54257;54.496;18.412;2023-01-27T12:26:55;100728.92;;;3.00;71.69
67373;BME280;54257;54.496;18.412;2023-01-27T12:31:57;100731.95;;;3.17;70.56
67373;BME280;54257;54.496;18.412;2023-01-27T12:36:58;100733.02;;;3.35;70.72
67373;BME280;54257;54.496;18.412;2023-01-27T12:42:01;100731.91;;;3.48;69.75
67373;BME280;54257;54.496;18.412;2023-01-27T12:44:40;100730.80;;;3.58;70.10
67373;BME280;54257;54.496;18.412;2023-01-27T12:47:26;100728.61;;;3.64;69.95
67373;BME280;54257;54.496;18.412;2023-01-27T12:50:18;100730.31;;;3.76;69.33
67373;BME280;54257;54.496;18.412;2023-01-27T12:53:08;100732.37;;;3.80;70.02
67373;BME280;54257;54.496;18.412;2023-01-27T12:56:00;100726.16;;;3.81;70.34
67373;BME280;54257;54.496;18.412;2023-01-27T13:01:29;100730.48;;;3.91;71.42
67373;BME280;54257;54.496;18.412;2023-01-27T13:04:03;100725.77;;;3.86;69.84
67373;BME280;54257;54.496;18.412;2023-01-27T13:06:41;100728.31;;;3.71;69.60
67373;BME280;54257;54.496;18.412;2023-01-27T13:12:08;100732.67;;;3.58;69.78
67373;BME280;54257;54.496;18.412;2023-01-27T13:14:41;100735.48;;;3.48;68.84
67373;BME280;54257;54.496;18.412;2023-01-27T13:20:16;100732.23;;;3.33;70.09
67373;BME280;54257;54.496;18.412;2023-01-27T13:28:54;100735.78;;;3.16;70.08
67373;BME280;54257;54.496;18.412;2023-01-27T13:31:37;100733.13;;;3.08;70.12
67373;BME280;54257;54.496;18.412;2023-01-27T13:34:40;100733.34;;;2.95;69.88
67373;BME280;54257;54.496;18.412;2023-01-27T13:39:58;100733.08;;;2.68;70.59
67373;BME280;54257;54.496;18.412;2023-01-27T13:42:36;100735.55;;;2.56;71.34
67373;BME280;54257;54.496;18.412;2023-01-27T13:45:34;100737.88;;;2.47;72.36
67373;BME280;54257;54.496;18.412;2023-01-27T13:50:57;100740.75;;;2.33;73.52
67373;BME280;54257;54.496;18.412;2023-01-27T13:53:27;100738.81;;;2.26;73.98
67373;BME280;54257;54.496;18.412;2023-01-27T14:07:37;100738.00;;;2.00;75.55
67373;BME280;54257;54.496;18.412;2023-01-27T14:10:18;100742.97;;;1.99;75.94
67373;BME280;54257;54.496;18.412;2023-01-27T14:13:37;100742.65;;;1.99;76.25
67373;BME280;54257;54.496;18.412;2023-01-27T14:16:20;100750.65;;;2.01;76.74
67373;BME280;54257;54.496;18.412;2023-01-27T14:18:55;100750.35;;;1.98;76.67
67373;BME280;54257;54.496;18.412;2023-01-27T14:21:41;100750.89;;;1.93;76.68
67373;BME280;54257;54.496;18.412;2023-01-27T14:24:21;100752.30;;;1.89;76.96
67373;BME280;54257;54.496;18.412;2023-01-27T14:29:48;100753.91;;;1.78;77.41
67373;BME280;54257;54.496;18.412;2023-01-27T14:32:44;100758.94;;;1.69;77.34
67373;BME280;54257;54.496;18.412;2023-01-27T14:35:29;100754.20;;;1.64;77.54
67373;BME280;54257;54.496;18.412;2023-01-27T14:38:09;100759.71;;;1.61;78.01
67373;BME280;54257;54.496;18.412;2023-01-27T15:02:51;100775.58;;;1.11;78.33
67373;BME280;54257;54.496;18.412;2023-01-27T15:05:38;100776.97;;;1.06;78.30
67373;BME280;54257;54.496;18.412;2023-01-27T15:14:31;100774.91;;;0.98;78.43
67373;BME280;54257;54.496;18.412;2023-01-27T15:20:29;100780.83;;;0.94;79.04
67373;BME280;54257;54.496;18.412;2023-01-27T15:25:55;100788.15;;;0.90;79.45